createdAt,value
2022-12-16T00:01:58.493Z,100213.00
2022-12-16T00:04:26.550Z,100217.00
2022-12-16T00:06:54.473Z,100216.00
2022-12-16T00:09:23.991Z,100216.00
2022-12-16T00:11:51.702Z,100215.00
2022-12-16T00:14:19.582Z,100226.00
2022-12-16T00:16:47.395Z,100217.00
2022-12-16T00:19:15.378Z,100180.00
2022-12-16T00:21:43.541Z,100182.00
2022-12-16T00:24:11.299Z,100206.00
2022-12-16T00:26:40.399Z,100209.00
2022-12-16T00:29:11.004Z,100218.00
2022-12-16T00:31:38.830Z,100208.00
2022-12-16T00:34:06.730Z,100223.00
2022-12-16T00:36:34.635Z,100222.00
2022-12-16T00:39:02.825Z,100220.00
2022-12-16T00:41:30.544Z,100225.00
2022-12-16T00:43:59.711Z,100218.00
2022-12-16T00:46:27.413Z,100235.00
2022-12-16T00:48:55.258Z,100184.00
2022-12-16T00:51:23.239Z,100224.00
2022-12-16T00:53:52.597Z,100221.00
2022-12-16T00:56:21.943Z,100241.00
2022-12-16T00:58:50.522Z,100238.00
2022-12-16T01:01:19.750Z,100236.00
2022-12-16T01:03:47.641Z,100236.00
2022-12-16T01:06:17.412Z,100231.00
2022-12-16T01:08:48.602Z,100233.00
2022-12-16T01:11:17.303Z,100238.00
2022-12-16T01:13:47.941Z,100250.00
2022-12-16T01:16:16.462Z,100231.00
2022-12-16T01:18:45.702Z,100258.00
2022-12-16T01:21:15.659Z,100246.00
2022-12-16T01:23:43.765Z,100248.00
2022-12-16T01:26:16.102Z,100262.00
2022-12-16T01:28:43.866Z,100249.00
2022-12-16T01:31:13.039Z,100252.00
2022-12-16T01:33:40.917Z,100261.00
2022-12-16T01:36:10.685Z,100257.00
2022-12-16T01:38:39.583Z,100241.00
2022-12-16T01:41:07.300Z,100261.00
2022-12-16T01:43:38.792Z,100256.00
2022-12-16T01:46:10.813Z,100270.00
2022-12-16T01:48:45.718Z,100247.00
2022-12-16T01:51:19.527Z,100266.00
2022-12-16T01:53:49.157Z,100234.00
2022-12-16T01:56:20.598Z,100270.00
2022-12-16T01:58:50.007Z,100242.00
2022-12-16T02:01:18.464Z,100222.00
2022-12-16T02:03:46.319Z,100282.00
2022-12-16T02:06:15.418Z,100263.00
2022-12-16T02:08:43.219Z,100273.00
2022-12-16T02:11:31.464Z,100269.00
2022-12-16T02:14:18.581Z,100274.00
2022-12-16T02:16:55.577Z,100263.00
2022-12-16T02:19:58.224Z,100277.00
2022-12-16T02:22:38.870Z,100265.00
2022-12-16T02:25:43.431Z,100275.00
2022-12-16T02:28:14.138Z,100262.00
2022-12-16T02:31:09.522Z,100265.00
2022-12-16T02:33:51.593Z,100273.00
2022-12-16T02:36:30.288Z,100259.00
2022-12-16T02:39:01.203Z,100260.00
2022-12-16T02:41:38.722Z,100256.00
2022-12-16T02:44:09.207Z,100269.00
2022-12-16T02:46:43.058Z,100266.00
2022-12-16T02:49:44.689Z,100263.00
2022-12-16T02:52:13.486Z,100262.00
2022-12-16T02:54:41.913Z,100248.00
2022-12-16T02:57:24.440Z,100259.00
2022-12-16T03:00:02.670Z,100239.00
2022-12-16T03:02:39.317Z,100258.00
2022-12-16T03:05:11.021Z,100252.00
2022-12-16T03:07:41.413Z,100260.00
2022-12-16T03:10:13.227Z,100210.00
2022-12-16T03:12:43.293Z,100265.00
2022-12-16T03:15:12.825Z,100259.00
2022-12-16T03:17:43.686Z,100267.00
2022-12-16T03:20:17.289Z,100261.00
2022-12-16T03:22:49.193Z,100261.00
2022-12-16T03:25:17.543Z,100265.00
2022-12-16T03:27:53.117Z,100277.00
2022-12-16T03:30:26.556Z,100260.00
2022-12-16T03:33:01.051Z,100275.00
2022-12-16T03:35:34.393Z,100244.00
2022-12-16T03:38:04.483Z,100275.00
2022-12-16T03:40:34.187Z,100247.00
2022-12-16T03:43:03.641Z,100273.00
2022-12-16T03:45:37.889Z,100272.00
2022-12-16T03:48:09.382Z,100259.00
2022-12-16T03:50:38.694Z,100275.00
2022-12-16T03:53:07.375Z,100278.00
2022-12-16T03:55:35.295Z,100276.00
2022-12-16T03:58:02.968Z,100262.00
2022-12-16T04:00:30.686Z,100269.00
2022-12-16T04:02:58.647Z,100239.00
2022-12-16T04:05:28.063Z,100266.00
2022-12-16T04:08:00.250Z,100270.00
2022-12-16T04:10:43.597Z,100268.00
2022-12-16T04:13:30.072Z,100269.00
2022-12-16T04:16:14.817Z,100286.00
2022-12-16T04:19:00.266Z,100270.00
2022-12-16T04:21:47.136Z,100288.00
2022-12-16T04:24:24.071Z,100247.00
2022-12-16T04:27:15.347Z,100292.00
2022-12-16T04:29:57.730Z,100290.00
2022-12-16T04:32:25.727Z,100295.00
2022-12-16T04:34:52.877Z,100276.00
2022-12-16T04:37:39.228Z,100277.00
2022-12-16T04:40:25.755Z,100282.00
2022-12-16T04:43:11.142Z,100294.00
2022-12-16T04:45:57.702Z,100293.00
2022-12-16T04:48:43.232Z,100296.00
2022-12-16T04:51:28.377Z,100297.00
2022-12-16T04:54:15.067Z,100293.00
2022-12-16T04:57:00.352Z,100299.00
2022-12-16T04:59:45.794Z,100299.00
2022-12-16T05:02:31.324Z,100305.00
2022-12-16T05:05:16.918Z,100308.00
2022-12-16T05:08:02.131Z,100311.00
2022-12-16T05:10:48.750Z,100310.00
2022-12-16T05:13:34.541Z,100287.00
2022-12-16T05:16:19.922Z,100281.00
2022-12-16T05:19:05.186Z,100333.00
2022-12-16T05:21:50.740Z,100326.00
2022-12-16T05:24:35.983Z,100314.00
2022-12-16T05:27:22.769Z,100299.00
2022-12-16T05:30:08.324Z,100335.00
2022-12-16T05:32:53.471Z,100348.00
2022-12-16T05:35:41.009Z,100342.00
2022-12-16T05:38:26.445Z,100343.00
2022-12-16T05:41:11.890Z,100368.00
2022-12-16T05:43:58.671Z,100354.00
2022-12-16T05:46:43.960Z,100361.00
2022-12-16T05:49:29.302Z,100366.00
2022-12-16T05:52:16.231Z,100347.00
2022-12-16T05:55:06.916Z,100342.00
2022-12-16T05:57:52.258Z,100376.00
2022-12-16T06:00:39.064Z,100380.00
2022-12-16T06:03:24.419Z,100382.00
2022-12-16T06:06:10.375Z,100386.00
2022-12-16T06:08:55.763Z,100390.00
2022-12-16T06:11:41.256Z,100402.00
2022-12-16T06:14:26.767Z,100393.00
2022-12-16T06:17:13.484Z,100385.00
2022-12-16T06:19:58.966Z,100396.00
2022-12-16T06:22:44.714Z,100351.00
2022-12-16T06:25:30.020Z,100404.00
2022-12-16T06:28:15.408Z,100402.00
2022-12-16T06:31:00.707Z,100400.00
2022-12-16T06:33:51.864Z,100414.00
2022-12-16T06:36:39.765Z,100415.00
2022-12-16T06:39:21.432Z,100424.00
2022-12-16T06:42:06.814Z,100432.00
2022-12-16T06:44:52.085Z,100442.00
2022-12-16T06:47:37.465Z,100451.00
2022-12-16T06:50:25.075Z,100446.00
2022-12-16T06:53:10.376Z,100450.00
2022-12-16T06:55:55.769Z,100452.00
2022-12-16T06:58:41.163Z,100463.00
2022-12-16T07:01:26.641Z,100474.00
2022-12-16T07:04:11.882Z,100468.00
2022-12-16T07:06:58.737Z,100470.00
2022-12-16T07:09:44.568Z,100475.00
2022-12-16T07:12:29.968Z,100480.00
2022-12-16T07:15:17.513Z,100476.00
2022-12-16T07:18:04.368Z,100483.00
2022-12-16T07:20:49.922Z,100500.00
2022-12-16T07:23:39.811Z,100503.00
2022-12-16T07:26:25.112Z,100504.00
2022-12-16T07:29:11.583Z,100474.00
2022-12-16T07:31:57.032Z,100513.00
2022-12-16T07:34:47.149Z,100512.00
2022-12-16T07:37:35.020Z,100511.00
2022-12-16T07:40:21.668Z,100533.00
2022-12-16T07:43:06.875Z,100533.00
2022-12-16T07:45:52.484Z,100536.00
2022-12-16T07:48:37.753Z,100559.00
2022-12-16T07:51:23.127Z,100543.00
2022-12-16T07:54:08.594Z,100570.00
2022-12-16T07:56:55.520Z,100563.00
2022-12-16T07:59:40.865Z,100576.00
2022-12-16T08:02:28.088Z,100566.00
2022-12-16T08:05:13.315Z,100557.00
2022-12-16T08:07:59.524Z,100596.00
2022-12-16T08:10:45.374Z,100578.00
2022-12-16T08:13:31.874Z,100601.00
2022-12-16T08:16:17.696Z,100599.00
2022-12-16T08:19:09.077Z,100579.00
2022-12-16T08:21:56.083Z,100601.00
2022-12-16T08:24:41.396Z,100599.00
2022-12-16T08:27:26.464Z,100595.00
2022-12-16T08:30:13.168Z,100603.00
2022-12-16T08:33:01.273Z,100612.00
2022-12-16T08:35:50.595Z,100612.00
2022-12-16T08:38:36.572Z,100590.00
2022-12-16T08:41:21.913Z,100614.00
2022-12-16T08:44:07.499Z,100617.00
2022-12-16T08:46:54.208Z,100615.00
2022-12-16T08:49:39.601Z,100627.00
2022-12-16T08:52:24.629Z,100618.00
2022-12-16T08:55:09.961Z,100621.00
2022-12-16T08:57:55.375Z,100651.00
2022-12-16T09:00:41.283Z,100642.00
2022-12-16T09:03:27.846Z,100655.00
2022-12-16T09:06:17.256Z,100654.00
2022-12-16T09:09:03.608Z,100654.00
2022-12-16T09:11:48.813Z,100656.00
2022-12-16T09:14:36.841Z,100652.00
2022-12-16T09:17:21.899Z,100634.00
2022-12-16T09:20:08.895Z,100634.00
2022-12-16T09:22:54.323Z,100666.00
2022-12-16T09:25:39.692Z,100666.00
2022-12-16T09:28:25.302Z,100650.00
2022-12-16T09:31:12.919Z,100667.00
2022-12-16T09:33:58.029Z,100669.00
2022-12-16T09:36:44.590Z,100683.00
2022-12-16T09:39:30.066Z,100674.00
2022-12-16T09:42:22.412Z,100674.00
2022-12-16T09:45:25.110Z,100682.00
2022-12-16T09:48:15.221Z,100677.00
2022-12-16T09:51:03.250Z,100677.00
2022-12-16T09:53:54.988Z,100686.00
2022-12-16T09:56:48.256Z,100683.00
2022-12-16T09:59:39.592Z,100673.00
2022-12-16T10:02:30.613Z,100652.00
2022-12-16T10:05:16.051Z,100688.00
2022-12-16T10:08:06.937Z,100688.00
2022-12-16T10:11:00.887Z,100699.00
2022-12-16T10:13:55.109Z,100698.00
2022-12-16T10:16:47.731Z,100697.00
2022-12-16T10:19:49.343Z,100696.00
2022-12-16T10:22:41.949Z,100705.00
2022-12-16T10:25:34.423Z,100701.00
2022-12-16T10:28:32.715Z,100704.00
2022-12-16T10:31:19.056Z,100691.00
2022-12-16T10:34:16.075Z,100690.00
2022-12-16T10:37:08.884Z,100696.00
2022-12-16T10:40:15.974Z,100661.00
2022-12-16T10:43:08.780Z,100694.00
2022-12-16T10:46:10.036Z,100692.00
2022-12-16T10:48:56.510Z,100695.00
2022-12-16T10:51:46.073Z,100684.00
2022-12-16T10:54:46.671Z,100700.00
2022-12-16T10:57:38.087Z,100698.00
2022-12-16T11:00:29.626Z,100709.00
2022-12-16T11:03:36.641Z,100715.00
2022-12-16T11:06:23.112Z,100718.00
2022-12-16T11:09:08.394Z,100662.00
2022-12-16T11:11:53.878Z,100684.00
2022-12-16T11:14:54.334Z,100702.00
2022-12-16T11:17:48.762Z,100681.00
2022-12-16T11:20:39.692Z,100703.00
2022-12-16T11:23:33.718Z,100713.00
2022-12-16T11:26:34.465Z,100655.00
2022-12-16T11:29:29.381Z,100699.00
2022-12-16T11:32:25.301Z,100693.00
2022-12-16T11:35:13.818Z,100698.00
2022-12-16T11:38:02.625Z,100711.00
2022-12-16T11:40:49.645Z,100714.00
2022-12-16T11:43:37.197Z,100712.00
2022-12-16T11:46:28.505Z,100714.00
2022-12-16T11:49:23.385Z,100645.00
2022-12-16T11:52:35.293Z,100695.00
2022-12-16T11:55:56.047Z,100731.00
2022-12-16T11:58:39.921Z,100713.00
2022-12-16T12:01:31.162Z,100708.00
2022-12-16T12:04:16.681Z,100721.00
2022-12-16T12:07:45.023Z,100727.00
2022-12-16T12:10:49.250Z,100721.00
2022-12-16T12:14:00.208Z,100733.00
2022-12-16T12:16:52.221Z,100753.00
2022-12-16T12:19:46.405Z,100746.00
2022-12-16T12:22:44.605Z,100710.00
2022-12-16T12:25:41.251Z,100739.00
2022-12-16T12:28:38.089Z,100712.00
2022-12-16T12:31:33.023Z,100757.00
2022-12-16T12:34:24.143Z,100761.00
2022-12-16T12:37:15.786Z,100729.00
2022-12-16T12:40:05.308Z,100764.00
2022-12-16T12:43:02.556Z,100767.00
2022-12-16T12:46:10.211Z,100764.00
2022-12-16T12:49:03.521Z,100762.00
2022-12-16T12:51:55.834Z,100748.00
2022-12-16T12:54:52.610Z,100782.00
2022-12-16T12:57:41.309Z,100754.00
2022-12-16T13:00:36.103Z,100764.00
2022-12-16T13:03:27.053Z,100788.00
2022-12-16T13:06:13.519Z,100731.00
2022-12-16T13:09:15.039Z,100766.00
2022-12-16T13:12:33.988Z,100760.00
2022-12-16T13:15:23.656Z,100754.00
2022-12-16T13:18:53.467Z,100780.00
2022-12-16T13:22:11.669Z,100769.00
2022-12-16T13:25:00.387Z,100792.00
2022-12-16T13:27:46.993Z,100799.00
2022-12-16T13:30:42.898Z,100796.00
2022-12-16T13:33:43.701Z,100810.00
2022-12-16T13:36:30.825Z,100809.00
2022-12-16T13:39:36.435Z,100787.00
2022-12-16T13:42:27.715Z,100779.00
2022-12-16T13:45:15.868Z,100785.00
2022-12-16T13:48:39.984Z,100816.00
2022-12-16T13:51:25.409Z,100767.00
2022-12-16T13:54:12.905Z,100805.00
2022-12-16T13:57:02.984Z,100777.00
2022-12-16T13:59:50.737Z,100766.00
2022-12-16T14:02:49.135Z,100805.00
2022-12-16T14:05:41.015Z,100833.00
2022-12-16T14:08:35.094Z,100790.00
2022-12-16T14:11:22.276Z,100844.00
2022-12-16T14:14:18.213Z,100852.00
2022-12-16T14:17:09.993Z,100799.00
2022-12-16T14:20:12.307Z,100855.00
2022-12-16T14:23:17.927Z,100812.00
2022-12-16T14:26:15.984Z,100834.00
2022-12-16T14:29:05.522Z,100859.00
2022-12-16T14:31:57.024Z,100845.00
2022-12-16T14:34:44.784Z,100872.00
2022-12-16T14:37:34.043Z,100868.00
2022-12-16T14:40:20.002Z,100869.00
2022-12-16T14:43:12.951Z,100868.00
2022-12-16T14:46:06.846Z,100865.00
2022-12-16T14:48:56.679Z,100876.00
2022-12-16T14:51:46.466Z,100859.00
2022-12-16T14:54:42.525Z,100886.00
2022-12-16T14:57:36.130Z,100875.00
2022-12-16T15:00:31.101Z,100851.00
2022-12-16T15:03:27.677Z,100905.00
2022-12-16T15:06:16.082Z,100882.00
2022-12-16T15:09:07.796Z,100907.00
2022-12-16T15:11:54.496Z,100887.00
2022-12-16T15:14:47.281Z,100910.00
2022-12-16T15:17:41.345Z,100878.00
2022-12-16T15:20:35.734Z,100925.00
2022-12-16T15:23:22.895Z,100915.00
2022-12-16T15:26:17.211Z,100897.00
2022-12-16T15:29:02.995Z,100929.00
2022-12-16T15:31:51.534Z,100868.00
2022-12-16T15:34:50.059Z,100922.00
2022-12-16T15:37:37.606Z,100933.00
2022-12-16T15:40:38.325Z,100937.00
2022-12-16T15:43:24.223Z,100946.00
2022-12-16T15:46:09.808Z,100950.00
2022-12-16T15:48:56.229Z,100946.00
2022-12-16T15:51:48.764Z,100955.00
2022-12-16T15:54:36.397Z,100967.00
2022-12-16T15:57:44.254Z,100949.00
2022-12-16T16:00:39.353Z,100923.00
2022-12-16T16:03:36.147Z,100954.00
2022-12-16T16:06:22.272Z,100955.00
2022-12-16T16:09:10.818Z,100959.00
2022-12-16T16:11:56.105Z,100949.00
2022-12-16T16:14:54.259Z,100928.00
2022-12-16T16:17:41.609Z,100971.00
2022-12-16T16:20:32.778Z,100969.00
2022-12-16T16:23:18.364Z,100975.00
2022-12-16T16:26:04.315Z,100978.00
2022-12-16T16:28:49.647Z,100985.00
2022-12-16T16:31:36.600Z,100980.00
2022-12-16T16:34:22.246Z,100977.00
2022-12-16T16:37:11.569Z,100986.00
2022-12-16T16:39:57.051Z,100972.00
2022-12-16T16:42:43.126Z,100992.00
2022-12-16T16:45:29.250Z,100981.00
2022-12-16T16:48:24.970Z,100989.00
2022-12-16T16:51:14.361Z,101000.00
2022-12-16T16:54:00.054Z,100994.00
2022-12-16T16:56:47.542Z,100995.00
2022-12-16T16:59:47.234Z,100989.00
2022-12-16T17:02:40.855Z,101009.00
2022-12-16T17:05:25.246Z,101005.00
2022-12-16T17:08:10.571Z,101007.00
2022-12-16T17:10:56.098Z,100984.00
2022-12-16T17:13:41.453Z,100994.00
2022-12-16T17:16:28.558Z,101017.00
2022-12-16T17:19:14.021Z,101021.00
2022-12-16T17:22:00.695Z,101017.00
2022-12-16T17:24:49.344Z,100990.00
2022-12-16T17:27:39.428Z,101016.00
2022-12-16T17:30:32.894Z,101009.00
2022-12-16T17:33:18.130Z,101025.00
2022-12-16T17:36:08.516Z,101031.00
2022-12-16T17:38:58.226Z,101036.00
2022-12-16T17:41:43.723Z,101036.00
2022-12-16T17:44:29.187Z,101044.00
2022-12-16T17:47:14.482Z,101043.00
2022-12-16T17:49:59.979Z,101057.00
2022-12-16T17:52:45.804Z,101062.00
2022-12-16T17:55:35.227Z,101062.00
2022-12-16T17:58:20.678Z,101060.00
2022-12-16T18:01:06.147Z,101060.00
2022-12-16T18:03:51.690Z,101072.00
2022-12-16T18:06:37.508Z,101072.00
2022-12-16T18:09:22.825Z,101043.00
2022-12-16T18:12:09.158Z,101064.00
2022-12-16T18:14:54.666Z,101051.00
2022-12-16T18:17:40.032Z,101081.00
2022-12-16T18:20:26.518Z,101059.00
2022-12-16T18:23:12.185Z,101070.00
2022-12-16T18:25:57.480Z,101074.00
2022-12-16T18:28:46.492Z,101069.00
2022-12-16T18:31:31.862Z,101062.00
2022-12-16T18:34:17.243Z,101075.00
2022-12-16T18:37:02.681Z,101081.00
2022-12-16T18:39:48.108Z,101059.00
2022-12-16T18:42:41.842Z,101099.00
2022-12-16T18:45:28.854Z,101086.00
2022-12-16T18:48:14.271Z,101052.00
2022-12-16T18:50:59.635Z,101054.00
2022-12-16T18:53:45.388Z,101096.00
2022-12-16T18:56:30.505Z,101100.00
2022-12-16T18:59:17.209Z,101103.00
2022-12-16T19:02:04.178Z,101119.00
2022-12-16T19:04:49.276Z,101109.00
2022-12-16T19:07:37.005Z,101128.00
2022-12-16T19:10:23.075Z,101127.00
2022-12-16T19:13:08.517Z,101138.00
2022-12-16T19:15:54.643Z,101142.00
2022-12-16T19:18:41.357Z,101132.00
2022-12-16T19:21:28.523Z,101114.00
2022-12-16T19:24:14.083Z,101118.00
2022-12-16T19:26:59.368Z,101144.00
2022-12-16T19:29:44.652Z,101143.00
2022-12-16T19:32:29.847Z,101122.00
2022-12-16T19:35:16.789Z,101142.00
2022-12-16T19:38:02.263Z,101161.00
2022-12-16T19:40:47.543Z,101153.00
2022-12-16T19:43:32.742Z,101170.00
2022-12-16T19:46:18.389Z,101157.00
2022-12-16T19:49:04.657Z,101146.00
2022-12-16T19:51:51.806Z,101167.00
2022-12-16T19:54:37.256Z,101172.00
2022-12-16T19:57:22.570Z,101180.00
2022-12-16T20:00:07.706Z,101162.00
2022-12-16T20:02:52.451Z,101194.00
2022-12-16T20:05:38.868Z,101182.00
2022-12-16T20:08:25.480Z,101182.00
2022-12-16T20:11:10.831Z,101169.00
2022-12-16T20:13:56.290Z,101187.00
2022-12-16T20:16:41.746Z,101190.00
2022-12-16T20:19:27.286Z,101188.00
2022-12-16T20:22:16.473Z,101197.00
2022-12-16T20:25:03.027Z,101201.00
2022-12-16T20:27:48.523Z,101206.00
2022-12-16T20:30:34.663Z,101179.00
2022-12-16T20:33:19.961Z,101210.00
2022-12-16T20:36:13.982Z,101208.00
2022-12-16T20:38:59.753Z,101223.00
2022-12-16T20:41:46.564Z,101209.00
2022-12-16T20:44:32.130Z,101215.00
2022-12-16T20:47:17.711Z,101202.00
2022-12-16T20:50:03.125Z,101231.00
2022-12-16T20:52:48.521Z,101205.00
2022-12-16T20:55:33.919Z,101225.00
2022-12-16T20:58:20.333Z,101226.00
2022-12-16T21:01:09.816Z,101227.00
2022-12-16T21:03:56.371Z,101235.00
2022-12-16T21:06:42.264Z,101240.00
2022-12-16T21:09:27.912Z,101241.00
2022-12-16T21:12:13.333Z,101254.00
2022-12-16T21:14:59.995Z,101245.00
2022-12-16T21:17:45.415Z,101255.00
2022-12-16T21:20:30.838Z,101250.00
2022-12-16T21:23:19.218Z,101254.00
2022-12-16T21:26:05.247Z,101259.00
2022-12-16T21:28:51.757Z,101238.00
2022-12-16T21:31:38.320Z,101264.00
2022-12-16T21:34:23.955Z,101274.00
2022-12-16T21:37:09.338Z,101270.00
2022-12-16T21:39:54.933Z,101270.00
2022-12-16T21:42:44.020Z,101269.00
2022-12-16T21:45:30.089Z,101255.00
2022-12-16T21:48:16.790Z,101275.00
2022-12-16T21:51:02.331Z,101291.00
2022-12-16T21:53:48.029Z,101289.00
2022-12-16T21:56:34.265Z,101275.00
2022-12-16T21:59:19.817Z,101301.00
2022-12-16T22:02:05.380Z,101274.00
2022-12-16T22:04:52.113Z,101290.00
2022-12-16T22:07:37.209Z,101295.00
2022-12-16T22:10:23.065Z,101301.00
2022-12-16T22:13:08.373Z,101312.00
2022-12-16T22:15:53.598Z,101303.00
2022-12-16T22:18:45.182Z,101302.00
2022-12-16T22:21:32.084Z,101308.00
2022-12-16T22:24:17.797Z,101310.00
2022-12-16T22:27:11.866Z,101308.00
2022-12-16T22:29:57.635Z,101296.00
2022-12-16T22:32:43.396Z,101312.00
2022-12-16T22:35:31.368Z,101307.00
2022-12-16T22:38:18.479Z,101312.00
2022-12-16T22:41:12.808Z,101312.00
2022-12-16T22:43:57.971Z,101295.00
2022-12-16T22:46:43.314Z,101315.00
2022-12-16T22:49:28.847Z,101327.00
2022-12-16T22:52:14.397Z,101316.00
2022-12-16T22:55:01.296Z,101321.00
2022-12-16T22:57:46.711Z,101318.00
2022-12-16T23:00:34.295Z,101325.00
2022-12-16T23:03:19.951Z,101311.00
2022-12-16T23:06:05.525Z,101317.00
2022-12-16T23:08:51.025Z,101321.00
2022-12-16T23:11:42.510Z,101320.00
2022-12-16T23:14:27.811Z,101311.00
2022-12-16T23:17:13.288Z,101313.00
2022-12-16T23:19:58.568Z,101318.00
2022-12-16T23:22:43.977Z,101325.00
2022-12-16T23:25:29.286Z,101287.00
2022-12-16T23:28:15.696Z,101341.00
2022-12-16T23:31:01.084Z,101340.00
2022-12-16T23:33:46.369Z,101335.00
2022-12-16T23:36:31.824Z,101336.00
2022-12-16T23:39:17.244Z,101303.00
2022-12-16T23:42:03.867Z,101322.00
2022-12-16T23:44:56.229Z,101335.00
2022-12-16T23:47:41.874Z,101307.00
2022-12-16T23:50:23.788Z,101295.00
2022-12-16T23:53:09.103Z,101336.00
2022-12-16T23:55:55.026Z,101328.00
2022-12-16T23:58:40.286Z,101326.00
